Time;durP1;ratioP1;P1;durP2;ratioP2;P2;SDS_P1;SDS_P2;PMS_P1;PMS_P2;Temp;Humidity;BMP_temperature;BMP_pressure;BME280_temperature;BME280_humidity;BME280_pressure;Samples;Min_cycle;Max_cycle;Signal;HPM_P1;HPM_P2
2024/04/16 00:01:22;;;;;;;2.47;0.90;;;;;;;-145.69;65.41;52175.06;5525158;26;20225;-79
2024/04/16 00:03:47;;;;;;;2.37;0.93;;;;;;;-145.69;65.49;52208.72;5524938;26;20222;-77
2024/04/16 00:06:16;;;;;;;1.80;0.60;;;;;;;-145.69;65.30;52218.63;5525348;26;20268;-78
2024/04/16 00:08:41;;;;;;;4.00;1.00;;;;;;;-145.69;65.25;52206.75;5524659;26;20261;-78
2024/04/16 00:11:09;;;;;;;5.23;1.27;;;;;;;-145.69;64.87;52173.09;5524230;26;20321;-78
2024/04/16 00:13:37;;;;;;;2.37;1.00;;;;;;;-145.69;63.83;52171.09;5525083;26;20245;-78
2024/04/16 00:16:06;;;;;;;1.10;0.80;;;;;;;-145.69;65.28;52190.91;5525324;26;20233;-79
2024/04/16 00:18:32;;;;;;;1.47;0.80;;;;;;;-145.69;65.13;52190.91;5524584;26;20818;-78
2024/04/16 00:21:00;;;;;;;1.03;0.80;;;;;;;-145.69;65.01;52194.88;5525087;26;20226;-78
2024/04/16 00:23:27;;;;;;;3.27;1.10;;;;;;;-145.69;64.18;52181.00;5525171;26;20290;-77
2024/04/16 00:25:56;;;;;;;4.80;0.97;;;;;;;-145.69;63.38;52175.06;5525023;26;20329;-77
2024/04/16 00:28:21;;;;;;;4.97;1.17;;;;;;;-145.69;63.39;52198.81;5524305;26;20621;-79
2024/04/16 00:30:52;;;;;;;2.43;1.00;;;;;;;-145.69;63.66;52210.72;5524941;26;20259;-77
2024/04/16 00:33:18;;;;;;;3.67;0.93;;;;;;;-145.69;63.43;52200.81;5524904;26;20329;-78
2024/04/16 00:35:46;;;;;;;3.47;0.70;;;;;;;-145.69;63.31;52173.09;5525108;26;20230;-78
2024/04/16 00:38:12;;;;;;;1.77;1.13;;;;;;;-145.69;63.21;52167.13;5524944;26;20269;-79
2024/04/16 00:40:40;;;;;;;4.00;1.40;;;;;;;-145.69;63.42;52198.81;5524941;26;20217;-77
2024/04/16 00:43:15;;;;;;;6.53;1.20;;;;;;;-145.69;63.56;52198.81;5524079;26;20719;-80
2024/04/16 00:45:48;;;;;;;3.23;1.00;;;;;;;-145.69;63.58;52186.94;5487693;26;20445;-78
2024/04/16 00:48:16;;;;;;;4.47;1.00;;;;;;;-145.69;63.79;52194.88;5487762;26;20700;-78
2024/04/16 00:50:46;;;;;;;4.53;1.20;;;;;;;-145.69;63.69;52198.81;5497514;26;20286;-77
2024/04/16 00:53:12;;;;;;;4.40;1.13;;;;;;;-145.69;63.19;52186.94;5524566;26;20556;-79
2024/04/16 00:55:41;;;;;;;9.53;1.20;;;;;;;-145.69;63.54;52190.91;5524464;26;20218;-77
2024/04/16 00:58:08;;;;;;;5.87;1.30;;;;;;;-145.69;63.50;52206.75;5524188;26;20221;-78
2024/04/16 01:00:36;;;;;;;7.30;1.27;;;;;;;-145.69;64.12;52184.97;5524330;26;20688;-78
2024/04/16 01:03:02;;;;;;;4.33;1.40;;;;;;;-145.69;63.71;52202.78;5523362;26;20237;-78
2024/04/16 01:05:33;;;;;;;5.70;1.13;;;;;;;-145.69;63.81;52194.88;5523949;26;20233;-78
2024/04/16 01:07:59;;;;;;;3.33;0.93;;;;;;;-145.69;63.96;52218.63;5523554;26;20588;-78
2024/04/16 01:10:28;;;;;;;6.17;1.30;;;;;;;-145.69;63.46;52204.75;5523611;26;20306;-79
2024/04/16 01:12:55;;;;;;;4.87;0.90;;;;;;;-145.69;63.79;52179.03;5523158;26;20422;-78
2024/04/16 01:15:23;;;;;;;7.17;1.80;;;;;;;-145.69;63.06;52202.78;5524055;26;20329;-78
2024/04/16 01:17:52;;;;;;;2.83;0.97;;;;;;;-145.69;62.92;52186.94;5523097;26;20273;-81
2024/04/16 01:20:17;;;;;;;4.13;1.03;;;;;;;-145.69;63.92;52179.03;5523895;26;20222;-79
2024/04/16 01:22:53;;;;;;;1.50;0.93;;;;;;;-145.69;63.97;52181.00;5523420;26;20797;-79
2024/04/16 01:25:18;;;;;;;3.30;1.10;;;;;;;-145.69;64.01;52206.75;5511428;26;20472;-78
2024/04/16 01:27:46;;;;;;;3.63;1.10;;;;;;;-145.69;64.17;52175.06;5490908;26;20218;-80
2024/04/16 01:30:12;;;;;;;1.90;0.90;;;;;;;-145.69;63.69;52198.81;5491079;26;20286;-80
2024/04/16 01:32:40;;;;;;;2.37;1.10;;;;;;;-145.69;64.27;52202.78;5494767;26;20736;-80
2024/04/16 01:35:06;;;;;;;3.90;1.07;;;;;;;-145.69;64.40;52192.88;5526573;26;20229;-79
2024/04/16 01:37:34;;;;;;;1.03;0.97;;;;;;;-145.69;64.04;52192.88;5527741;26;20727;-80
2024/04/16 01:40:02;;;;;;;4.67;1.53;;;;;;;-145.69;64.48;52186.94;5526667;26;20277;-79
2024/04/16 01:42:31;;;;;;;9.17;1.83;;;;;;;-145.69;64.36;52222.59;5527511;26;20323;-79
2024/04/16 01:44:59;;;;;;;7.00;1.10;;;;;;;-145.69;64.74;52208.72;5526849;26;20334;-79
2024/04/16 01:47:27;;;;;;;2.60;1.00;;;;;;;-145.69;64.58;52196.84;5527060;26;20241;-78
2024/04/16 01:49:53;;;;;;;3.47;1.10;;;;;;;-145.69;64.64;52194.88;5527646;26;20221;-80
2024/04/16 01:52:21;;;;;;;1.97;0.90;;;;;;;-145.69;64.88;52204.75;5526942;26;20350;-78
2024/04/16 01:54:47;;;;;;;2.27;1.00;;;;;;;-145.69;65.28;52194.88;5527024;26;20325;-79
2024/04/16 01:57:17;;;;;;;1.70;1.00;;;;;;;-145.69;64.78;52200.81;5526631;26;20237;-79
2024/04/16 01:59:43;;;;;;;2.50;1.10;;;;;;;-145.69;65.26;52216.66;5526902;26;20316;-79
2024/04/16 02:02:12;;;;;;;4.93;0.97;;;;;;;-145.69;65.18;52206.75;5527441;26;20233;-77
2024/04/16 02:04:37;;;;;;;1.23;0.87;;;;;;;-145.69;64.38;52198.81;5526795;26;20264;-79
2024/04/16 02:07:06;;;;;;;3.30;0.90;;;;;;;-145.69;64.66;52198.81;5527518;26;20241;-78
2024/04/16 02:09:33;;;;;;;4.77;1.13;;;;;;;-145.69;64.78;52190.91;5527174;26;20269;-79
2024/04/16 02:12:01;;;;;;;3.80;1.00;;;;;;;-145.69;64.89;52194.88;5527165;26;20221;-77
2024/04/16 02:14:30;;;;;;;0.80;0.70;;;;;;;-145.69;65.13;52188.91;5526238;26;20341;-80
2024/04/16 02:16:58;;;;;;;5.27;1.07;;;;;;;-145.69;65.17;52202.78;5527047;26;20217;-81
2024/04/16 02:19:24;;;;;;;6.07;0.93;;;;;;;-145.69;65.27;52186.94;5526921;26;20700;-80
2024/04/16 02:21:52;;;;;;;2.43;0.90;;;;;;;-145.69;64.91;52212.69;5526971;26;20271;-77
2024/04/16 02:24:18;;;;;;;1.73;1.00;;;;;;;-145.69;64.89;52192.88;5527023;26;20233;-79
2024/04/16 02:26:46;;;;;;;3.33;0.70;;;;;;;-145.69;64.76;52210.72;5526322;26;20267;-79
2024/04/16 02:29:12;;;;;;;1.27;0.77;;;;;;;-145.69;65.21;52186.94;5526915;26;20268;-77
2024/04/16 02:31:42;;;;;;;2.37;0.93;;;;;;;-145.69;65.85;52194.88;5526475;26;20629;-79
2024/04/16 02:34:08;;;;;;;3.43;0.80;;;;;;;-145.69;66.07;52181.00;5526391;26;20234;-78
2024/04/16 02:36:38;;;;;;;3.93;0.80;;;;;;;-145.69;66.43;52218.63;5526251;26;20264;-78
2024/04/16 02:39:04;;;;;;;0.60;0.60;;;;;;;-145.69;66.32;52212.69;5527180;26;20217;-78
2024/04/16 02:41:32;;;;;;;1.40;0.80;;;;;;;-145.69;66.75;52198.81;5526358;26;20313;-78
2024/04/16 02:43:58;;;;;;;1.83;1.10;;;;;;;-145.69;67.33;52194.88;5526580;26;20268;-78
2024/04/16 02:46:29;;;;;;;1.07;0.90;;;;;;;-145.69;67.08;52196.84;5525836;26;20221;-79
2024/04/16 02:48:57;;;;;;;1.13;0.60;;;;;;;-145.69;67.22;52216.66;5526402;26;20459;-77
2024/04/16 02:51:25;;;;;;;3.07;1.10;;;;;;;-145.69;66.88;52190.91;5526162;26;20317;-78
2024/04/16 02:53:51;;;;;;;2.00;0.80;;;;;;;-145.69;67.33;52202.78;5526808;26;20322;-77
2024/04/16 02:56:19;;;;;;;1.07;0.60;;;;;;;-145.69;67.14;52202.78;5526792;26;20233;-78
2024/04/16 02:58:45;;;;;;;1.50;0.70;;;;;;;-145.69;67.63;52226.53;5526499;26;20269;-79
2024/04/16 03:01:15;;;;;;;2.10;1.00;;;;;;;-145.69;67.33;52190.91;5526186;26;20237;-77
2024/04/16 03:03:40;;;;;;;1.07;0.77;;;;;;;-145.69;67.28;52210.72;5525731;26;20826;-77
2024/04/16 03:06:11;;;;;;;2.33;1.00;;;;;;;-145.69;68.33;52198.81;5524555;26;20348;-78
2024/04/16 03:08:37;;;;;;;1.60;0.70;;;;;;;-145.69;67.06;52194.88;5526438;26;20221;-78
2024/04/16 03:11:05;;;;;;;0.70;0.70;;;;;;;-145.69;66.38;52198.81;5526512;26;20225;-77
2024/04/16 03:13:31;;;;;;;1.00;0.60;;;;;;;-145.69;65.48;52204.75;5525835;26;20259;-78
2024/04/16 03:15:59;;;;;;;2.87;0.70;;;;;;;-145.69;65.60;52159.22;5526057;26;20696;-77
2024/04/16 03:18:25;;;;;;;0.83;0.63;;;;;;;-145.69;64.66;52188.91;5526597;26;20272;-77
2024/04/16 03:21:00;;;;;;;0.77;0.50;;;;;;;-145.69;65.45;52186.94;5525100;26;20230;-77
2024/04/16 03:23:29;;;;;;;0.60;0.60;;;;;;;-145.69;65.81;52234.47;5522260;26;20329;-78
2024/04/16 03:25:57;;;;;;;1.40;0.70;;;;;;;-145.69;66.22;52210.72;5491384;26;20285;-78
2024/04/16 03:28:22;;;;;;;0.70;0.70;;;;;;;-145.69;65.88;52238.44;5489387;26;20269;-78
2024/04/16 03:30:51;;;;;;;0.60;0.60;;;;;;;-145.69;65.73;52206.75;5492722;26;20235;-78
2024/04/16 03:33:16;;;;;;;6.20;0.80;;;;;;;-145.69;65.20;52226.53;5525950;26;20264;-79
2024/04/16 03:35:46;;;;;;;4.60;0.77;;;;;;;-145.69;64.99;52206.75;5500170;26;20622;-78
2024/04/16 03:38:14;;;;;;;2.90;0.70;;;;;;;-145.69;64.69;52214.66;5525571;26;20225;-79
2024/04/16 03:40:45;;;;;;;0.77;0.70;;;;;;;-145.69;64.99;52198.81;5525115;26;20258;-80
2024/04/16 03:43:13;;;;;;;0.70;0.70;;;;;;;-145.69;65.02;52210.72;5524883;26;20222;-79
2024/04/16 03:45:38;;;;;;;1.43;0.80;;;;;;;-145.69;65.18;52210.72;5524595;26;20221;-82
2024/04/16 03:48:07;;;;;;;4.83;0.87;;;;;;;-145.69;64.90;52214.66;5525369;26;20221;-81
2024/04/16 03:50:33;;;;;;;2.33;0.83;;;;;;;-145.69;64.61;52198.81;5525708;26;20264;-81
2024/04/16 03:53:01;;;;;;;1.70;0.82;;;;;;;-145.69;65.79;52196.84;5523402;26;20756;-80
2024/04/16 03:55:29;;;;;;;1.00;0.70;;;;;;;-145.69;65.46;52182.97;5525700;26;20222;-80
2024/04/16 03:57:57;;;;;;;2.13;1.00;;;;;;;-145.69;65.73;52179.03;5525639;26;20268;-79
2024/04/16 04:03:14;;;;;;;1.10;1.00;;;;;;;-145.69;64.93;52194.88;5527831;26;20276;-80
2024/04/16 04:05:41;;;;;;;1.80;1.00;;;;;;;-145.69;65.09;52218.63;5525257;26;20556;-79
2024/04/16 04:08:13;;;;;;;2.33;1.00;;;;;;;-145.69;65.38;52202.78;5525205;26;20341;-81
2024/04/16 04:10:38;;;;;;;2.10;0.90;;;;;;;-145.69;65.38;52171.09;5525318;26;20280;-80
2024/04/16 04:13:09;;;;;;;1.80;0.90;;;;;;;-145.69;65.76;52196.84;5525279;26;20217;-81
2024/04/16 04:15:35;;;;;;;3.03;0.90;;;;;;;-145.69;65.48;52224.56;5525316;26;20327;-79
2024/04/16 04:18:04;;;;;;;5.27;1.03;;;;;;;-145.69;65.84;52171.09;5524472;26;20260;-79
2024/04/16 04:20:29;;;;;;;2.43;1.10;;;;;;;-145.69;66.03;52218.63;5524896;26;20284;-80
2024/04/16 04:22:57;;;;;;;2.63;1.07;;;;;;;-145.69;65.96;52186.94;5525352;26;20320;-77
2024/04/16 04:25:25;;;;;;;3.13;1.03;;;;;;;-145.69;65.52;52242.38;5524515;26;20755;-78
2024/04/16 04:27:55;;;;;;;2.40;0.90;;;;;;;-145.69;66.33;52186.94;5525025;26;20233;-80
2024/04/16 04:30:26;;;;;;;4.30;0.80;;;;;;;-145.69;67.56;52214.66;5524992;26;20694;-80
2024/04/16 04:32:52;;;;;;;1.60;0.80;;;;;;;-145.69;66.93;52246.34;5525175;26;20221;-80
2024/04/16 04:35:20;;;;;;;1.20;0.80;;;;;;;-145.69;66.89;52218.63;5523834;26;20285;-79
2024/04/16 04:37:46;;;;;;;1.27;0.60;;;;;;;-145.69;67.14;52220.59;5524389;26;20253;-80
2024/04/16 04:40:14;;;;;;;1.07;0.90;;;;;;;-145.69;67.15;52179.03;5524015;26;20371;-80
2024/04/16 04:42:40;;;;;;;4.80;0.97;;;;;;;-145.69;66.78;52218.63;5524315;26;20241;-80
2024/04/16 04:45:08;;;;;;;2.53;1.07;;;;;;;-145.69;66.87;52230.50;5523261;26;20835;-80
2024/04/16 04:47:37;;;;;;;1.23;0.80;;;;;;;-145.69;66.70;52198.81;5524410;26;20228;-79
2024/04/16 04:50:05;;;;;;;4.40;1.10;;;;;;;-145.69;66.53;52186.94;5524743;26;20217;-78
2024/04/16 04:52:31;;;;;;;1.17;1.07;;;;;;;-145.69;67.10;52190.91;5524018;26;20324;-77
2024/04/16 04:55:01;;;;;;;4.70;1.03;;;;;;;-145.69;66.01;52179.03;5524324;26;20234;-78
2024/04/16 04:57:27;;;;;;;4.00;0.90;;;;;;;-145.69;66.52;52226.53;5525514;26;20350;-78
2024/04/16 04:59:55;;;;;;;4.30;1.20;;;;;;;-145.69;66.21;52212.69;5528186;26;20221;-78
2024/04/16 05:02:21;;;;;;;8.03;1.37;;;;;;;-145.69;66.95;52131.50;5527427;26;20333;-78
2024/04/16 05:04:52;;;;;;;7.67;1.30;;;;;;;-145.69;66.21;52186.94;5528138;26;20233;-78
2024/04/16 05:07:19;;;;;;;2.37;1.10;;;;;;;-145.69;66.71;52218.63;5528177;26;20286;-79
2024/04/16 05:09:49;;;;;;;8.27;1.20;;;;;;;-145.69;66.70;52230.50;5527627;26;20325;-78
2024/04/16 05:12:14;;;;;;;6.23;1.60;;;;;;;-145.69;65.86;52226.53;5527914;26;20237;-77
2024/04/16 05:14:43;;;;;;;3.33;1.47;;;;;;;-145.69;66.04;52200.81;5527523;26;20225;-78
2024/04/16 05:17:08;;;;;;;6.60;1.60;;;;;;;-145.69;65.66;52184.97;5527715;26;20338;-78
2024/04/16 05:19:37;;;;;;;10.37;1.70;;;;;;;-145.69;65.76;52163.19;5527559;26;20229;-77
2024/04/16 05:22:05;;;;;;;3.53;1.17;;;;;;;-145.69;65.26;52230.50;5525507;26;20287;-78
2024/04/16 05:24:33;;;;;;;5.47;1.33;;;;;;;-145.69;65.03;52194.88;5527650;26;20276;-77
2024/04/16 05:26:58;;;;;;;7.87;1.30;;;;;;;-145.69;65.23;52198.81;5528102;26;20267;-78
2024/04/16 05:29:27;;;;;;;5.57;1.40;;;;;;;-145.69;65.25;52198.81;5527787;26;20222;-79
2024/04/16 05:31:52;;;;;;;6.27;1.43;;;;;;;-145.69;65.06;52186.94;5527146;26;20230;-78
2024/04/16 05:34:20;;;;;;;6.40;1.37;;;;;;;-145.69;64.66;52218.63;5521463;25;20229;-78
2024/04/16 05:36:46;;;;;;;5.53;1.50;;;;;;;-145.69;65.16;52165.16;5527573;26;20233;-81
2024/04/16 05:39:17;;;;;;;5.13;1.63;;;;;;;-145.69;64.83;52186.94;5527264;26;20269;-79
2024/04/16 05:41:43;;;;;;;6.93;1.20;;;;;;;-145.69;64.46;52210.72;5527518;26;20218;-78
2024/04/16 05:44:11;;;;;;;3.97;1.23;;;;;;;-145.69;63.43;52192.88;5528045;26;20259;-76
2024/04/16 05:46:36;;;;;;;4.67;1.80;;;;;;;-145.69;63.61;52226.53;5527509;26;20345;-79
2024/04/16 05:49:04;;;;;;;3.87;1.50;;;;;;;-145.69;62.79;52171.09;5526747;26;20612;-80
2024/04/16 05:51:30;;;;;;;4.27;1.10;;;;;;;-145.69;62.60;52234.47;5527727;26;20221;-80
2024/04/16 05:53:59;;;;;;;13.17;1.70;;;;;;;-145.69;62.21;52186.94;5527597;26;20217;-79
2024/04/16 05:56:27;;;;;;;4.00;1.60;;;;;;;-145.69;61.73;52184.97;5527412;26;20221;-79
2024/04/16 05:58:55;;;;;;;4.43;1.30;;;;;;;-145.69;61.09;52200.81;5526970;26;20221;-80
2024/04/16 06:01:21;;;;;;;6.77;1.90;;;;;;;-145.69;61.46;52198.81;5527025;26;20229;-79
2024/04/16 06:03:49;;;;;;;6.27;1.50;;;;;;;-145.69;61.58;52192.88;5527102;26;20800;-79
2024/04/16 06:06:14;;;;;;;5.20;2.30;;;;;;;-145.69;62.05;52214.66;5527631;26;20268;-80
2024/04/16 06:08:45;;;;;;;4.53;1.70;;;;;;;-145.69;62.04;52204.75;5526116;26;20222;-78
2024/04/16 06:11:11;;;;;;;3.40;1.20;;;;;;;-145.69;61.95;52214.66;5527526;26;20222;-79
2024/04/16 06:13:42;;;;;;;9.20;1.60;;;;;;;-145.69;62.31;52206.75;5527708;26;20720;-78
2024/04/16 06:16:07;;;;;;;3.40;1.03;;;;;;;-145.69;62.31;52218.63;5527370;26;20265;-76
2024/04/16 06:18:36;;;;;;;3.93;1.30;;;;;;;-145.69;61.69;52202.78;5526247;26;20233;-78
2024/04/16 06:21:01;;;;;;;8.70;1.50;;;;;;;-145.69;62.18;52184.97;5525904;26;20263;-77
2024/04/16 06:23:29;;;;;;;7.20;1.47;;;;;;;-145.69;61.96;52206.75;5526926;26;20230;-77
2024/04/16 06:25:55;;;;;;;6.00;1.10;;;;;;;-145.69;61.61;52236.44;5526552;26;20237;-77
2024/04/16 06:28:24;;;;;;;5.57;1.47;;;;;;;-145.69;61.23;52196.84;5527176;26;20263;-77
2024/04/16 06:30:58;;;;;;;5.40;1.30;;;;;;;-145.69;60.53;52194.88;5526739;26;20596;-78
2024/04/16 06:33:27;;;;;;;3.27;1.20;;;;;;;-145.69;59.92;52171.09;5526950;26;20264;-80
2024/04/16 06:35:54;;;;;;;13.23;1.60;;;;;;;-145.69;59.90;52210.72;5526921;26;20217;-78
2024/04/16 06:38:24;;;;;;;2.57;1.10;;;;;;;-145.69;59.51;52212.69;5526642;26;20221;-78
2024/04/16 06:40:50;;;;;;;4.20;1.50;;;;;;;-145.69;58.60;52214.66;5526981;26;20234;-78
2024/04/16 06:43:18;;;;;;;4.30;1.30;;;;;;;-145.69;57.15;52198.81;5526380;26;20264;-78
2024/04/16 06:45:44;;;;;;;5.43;1.40;;;;;;;-145.69;57.03;52175.06;5526773;26;20226;-77
2024/04/16 06:48:15;;;;;;;3.50;1.27;;;;;;;-145.69;55.43;52186.94;5526738;26;20766;-79
2024/04/16 06:50:45;;;;;;;3.80;1.00;;;;;;;-145.69;54.26;52167.13;5526492;26;20361;-79
2024/04/16 06:53:13;;;;;;;7.27;1.10;;;;;;;-145.69;54.56;52175.06;5526690;26;20712;-79
2024/04/16 06:55:42;;;;;;;5.50;1.43;;;;;;;-145.69;54.41;52190.91;5526743;26;20282;-77
2024/04/16 06:58:11;;;;;;;7.23;1.30;;;;;;;-145.69;53.58;52169.13;5525499;26;20244;-78
2024/04/16 07:00:45;;;;;;;12.70;1.60;;;;;;;-145.69;54.33;52167.13;5526426;26;20276;-79
2024/04/16 07:03:16;;;;;;;9.60;1.30;;;;;;;-145.69;55.35;52194.88;5489678;26;20743;-78
2024/04/16 07:05:41;;;;;;;3.30;1.37;;;;;;;-145.69;54.90;52169.13;5490308;26;20226;-79
2024/04/16 07:08:09;;;;;;;4.10;1.23;;;;;;;-145.69;54.69;52147.34;5489277;26;20226;-78
2024/04/16 07:10:35;;;;;;;8.10;1.57;;;;;;;-145.69;54.48;52167.13;5489742;26;20289;-78
2024/04/16 07:13:04;;;;;;;7.20;1.30;;;;;;;-145.69;54.34;52181.00;5489807;26;20713;-78
2024/04/16 07:15:30;;;;;;;6.17;1.23;;;;;;;-145.69;53.31;52202.78;5489150;26;20299;-78
2024/04/16 07:17:58;;;;;;;6.77;1.20;;;;;;;-145.69;52.46;52177.03;5517420;26;20221;-79
2024/04/16 07:20:26;;;;;;;4.37;1.23;;;;;;;-145.69;52.37;52165.16;5524727;26;20261;-79
2024/04/16 07:22:54;;;;;;;6.37;1.33;;;;;;;-145.69;52.82;52139.41;5526383;26;20225;-79
2024/04/16 07:25:20;;;;;;;8.30;1.03;;;;;;;-145.69;53.09;52181.00;5526689;26;20276;-79
2024/04/16 07:27:48;;;;;;;3.87;1.30;;;;;;;-145.69;51.63;52171.09;5525914;26;20222;-78
2024/04/16 07:30:18;;;;;;;8.67;1.47;;;;;;;-145.69;52.34;52173.09;5526079;26;20277;-79
2024/04/16 07:32:46;;;;;;;4.97;1.20;;;;;;;-145.69;50.39;52155.25;5525656;26;20234;-78
2024/04/16 07:35:12;;;;;;;2.83;1.17;;;;;;;-145.69;49.73;52173.09;5515907;25;20273;-79
2024/04/16 07:37:42;;;;;;;4.40;1.33;;;;;;;-145.69;48.33;52107.72;5525537;26;20237;-80
2024/04/16 07:40:11;;;;;;;4.83;1.00;;;;;;;-145.69;49.59;52139.41;5525294;26;20225;-78
2024/04/16 07:42:39;;;;;;;4.17;1.37;;;;;;;-145.69;50.17;52165.16;5488783;26;20326;-79
2024/04/16 07:45:05;;;;;;;2.20;1.10;;;;;;;-145.69;48.08;52143.38;5488902;26;20769;-78
2024/04/16 07:47:33;;;;;;;6.37;1.17;;;;;;;-145.69;47.09;52149.31;5507146;26;20230;-77
2024/04/16 07:49:59;;;;;;;3.27;1.30;;;;;;;-145.69;45.93;52165.16;5525471;26;20708;-79
2024/04/16 07:52:27;;;;;;;6.00;1.10;;;;;;;-145.69;46.64;52161.19;5525429;26;20225;-79
2024/04/16 07:54:55;;;;;;;2.43;1.00;;;;;;;-145.69;49.51;52155.25;5525560;26;20310;-78
2024/04/16 07:57:23;;;;;;;7.13;1.13;;;;;;;-145.69;47.25;52153.28;5525676;26;20788;-79
2024/04/16 07:59:50;;;;;;;6.07;1.60;;;;;;;-145.69;46.57;52147.34;5525665;26;20391;-80
2024/04/16 08:02:21;;;;;;;3.53;1.20;;;;;;;-145.69;45.66;52141.41;5525680;26;20221;-78
2024/04/16 08:04:46;;;;;;;5.30;1.17;;;;;;;-145.69;46.21;52179.03;5526137;26;20229;-79
2024/04/16 08:07:15;;;;;;;6.53;1.07;;;;;;;-145.69;46.36;52163.19;5525686;26;20309;-81
2024/04/16 08:09:41;;;;;;;6.57;1.30;;;;;;;-145.69;46.48;52151.28;5524769;26;20332;-81
2024/04/16 08:12:12;;;;;;;1.33;1.00;;;;;;;-145.69;46.61;52139.41;5525117;26;20225;-80
2024/04/16 08:14:38;;;;;;;3.77;1.27;;;;;;;-145.69;45.18;52131.50;5526554;26;20221;-80
2024/04/16 08:17:06;;;;;;;5.33;1.20;;;;;;;-145.69;45.53;52163.19;5525586;26;20280;-79
2024/04/16 08:19:32;;;;;;;7.20;1.23;;;;;;;-145.69;45.03;52159.22;5525503;26;20565;-78
2024/04/16 08:22:02;;;;;;;6.70;1.43;;;;;;;-145.69;45.11;52111.69;5521976;26;20225;-80
2024/04/16 08:24:28;;;;;;;6.77;1.37;;;;;;;-145.69;43.96;52157.25;5525592;26;20770;-77
2024/04/16 08:26:58;;;;;;;4.53;1.23;;;;;;;-145.69;44.40;52099.81;5524339;26;20229;-79
2024/04/16 08:29:26;;;;;;;4.00;1.20;;;;;;;-145.69;42.51;52151.28;5525829;26;20312;-81
2024/04/16 08:31:55;;;;;;;3.27;1.17;;;;;;;-145.69;43.61;52147.34;5527131;25;20631;-77
2024/04/16 08:34:20;;;;;;;5.13;1.30;;;;;;;-145.69;44.44;52171.09;5533599;26;20272;-78
2024/04/16 08:36:48;;;;;;;2.47;1.07;;;;;;;-145.69;42.71;52133.47;5532783;26;20692;-78
2024/04/16 08:39:14;;;;;;;6.00;1.30;;;;;;;-145.69;42.91;52119.63;5533160;26;20229;-77
2024/04/16 08:41:42;;;;;;;1.33;0.90;;;;;;;-145.69;43.23;52153.28;5533151;26;20229;-79
2024/04/16 08:44:08;;;;;;;4.47;1.20;;;;;;;-145.69;43.58;52093.88;5532516;26;20712;-79
2024/04/16 08:46:40;;;;;;;2.23;0.90;;;;;;;-145.69;43.05;52115.66;5531885;26;20240;-77
2024/04/16 08:49:08;;;;;;;5.53;0.90;;;;;;;-145.69;42.08;52129.50;5533228;26;20815;-78
2024/04/16 08:51:39;;;;;;;3.47;1.00;;;;;;;-145.69;42.28;52129.50;5532850;26;20233;-77
2024/04/16 08:54:06;;;;;;;4.37;0.90;;;;;;;-145.69;42.21;52145.34;5532802;26;20271;-79
2024/04/16 08:56:37;;;;;;;2.10;0.90;;;;;;;-145.69;41.99;52141.41;5532435;26;20229;-78
2024/04/16 08:59:03;;;;;;;4.77;0.93;;;;;;;-145.69;41.04;52123.56;5532554;26;20225;-78
2024/04/16 09:01:34;;;;;;;3.37;0.83;;;;;;;-145.69;41.03;52101.78;5532304;26;20383;-78
2024/04/16 09:04:02;;;;;;;5.20;0.93;;;;;;;-145.69;42.03;52151.28;5531734;26;20217;-78
2024/04/16 09:06:32;;;;;;;2.30;0.80;;;;;;;-145.69;40.54;52129.50;5532515;26;20616;-79
2024/04/16 09:09:01;;;;;;;2.47;1.00;;;;;;;-145.69;41.52;52115.66;5532826;26;20329;-81
2024/04/16 09:11:29;;;;;;;4.57;1.50;;;;;;;-145.69;41.18;52125.56;5532401;26;20226;-78
2024/04/16 09:13:58;;;;;;;3.37;1.03;;;;;;;-145.69;39.85;52119.63;5525597;26;20338;-78
2024/04/16 09:16:23;;;;;;;1.50;0.80;;;;;;;-145.69;39.99;52099.81;5498335;26;20246;-79
2024/04/16 09:18:52;;;;;;;3.10;0.90;;;;;;;-145.69;40.26;52109.72;5517794;26;20241;-79
2024/04/16 09:21:20;;;;;;;4.57;1.00;;;;;;;-145.69;39.26;52115.66;5532277;26;20222;-78
2024/04/16 09:23:56;;;;;;;3.47;0.87;;;;;;;-145.69;39.70;52131.50;5531387;26;20697;-78
2024/04/16 09:26:22;;;;;;;2.53;0.83;;;;;;;-145.69;39.30;52109.72;5522410;25;20264;-78
2024/04/16 09:28:50;;;;;;;3.80;0.90;;;;;;;-145.69;39.57;52111.69;5494525;26;20681;-80
2024/04/16 09:31:17;;;;;;;2.67;0.70;;;;;;;-145.69;38.75;52099.81;5516910;26;20300;-81
2024/04/16 09:33:45;;;;;;;2.70;0.80;;;;;;;-145.69;38.81;52115.66;5530943;26;20229;-78
2024/04/16 09:36:12;;;;;;;3.47;0.97;;;;;;;-145.69;39.05;52103.78;5532092;26;20289;-78
2024/04/16 09:38:45;;;;;;;3.93;1.00;;;;;;;-145.69;39.19;52089.91;5531267;26;20268;-78
2024/04/16 09:41:11;;;;;;;2.57;0.70;;;;;;;-145.69;38.88;52093.88;5531811;26;20320;-78
2024/04/16 09:43:40;;;;;;;4.97;1.20;;;;;;;-145.69;38.34;52107.72;5529496;26;20217;-78
2024/04/16 09:46:08;;;;;;;3.97;1.20;;;;;;;-145.69;38.72;52083.97;5527704;26;20327;-80
2024/04/16 09:48:39;;;;;;;2.57;1.30;;;;;;;-145.69;38.96;52103.78;5526820;26;20267;-77
2024/04/16 09:51:05;;;;;;;5.30;1.20;;;;;;;-145.69;38.29;52105.75;5527705;26;20222;-78
2024/04/16 09:53:37;;;;;;;4.20;1.03;;;;;;;-145.69;39.33;52082.00;5527233;26;20255;-78
2024/04/16 09:56:07;;;;;;;4.17;1.30;;;;;;;-145.69;38.17;52083.97;5526737;26;20225;-77
2024/04/16 09:58:36;;;;;;;4.67;1.10;;;;;;;-145.69;38.31;52070.09;5527762;26;20697;-78
2024/04/16 10:01:03;;;;;;;5.40;1.20;;;;;;;-145.69;38.29;52042.38;5526345;26;20225;-80
2024/04/16 10:03:32;;;;;;;6.20;1.07;;;;;;;-145.69;37.51;52107.72;5527475;26;20754;-77
2024/04/16 10:05:58;;;;;;;7.53;0.80;;;;;;;-145.69;38.14;52099.81;5527012;26;20291;-78
2024/04/16 10:08:27;;;;;;;4.37;1.20;;;;;;;-145.69;38.25;52082.00;5527834;26;20225;-80
2024/04/16 10:10:56;;;;;;;3.60;1.30;;;;;;;-145.69;38.11;52115.66;5527135;26;20237;-78
2024/04/16 10:13:27;;;;;;;2.73;1.00;;;;;;;-145.69;39.09;52083.97;5526698;26;20549;-78
2024/04/16 10:15:53;;;;;;;4.93;1.30;;;;;;;-145.69;38.85;52109.72;5525105;26;20269;-80
2024/04/16 10:18:28;;;;;;;6.17;1.00;;;;;;;-145.69;38.58;52105.75;5527615;26;20666;-79
2024/04/16 10:20:56;;;;;;;3.93;1.30;;;;;;;-145.69;38.85;52105.75;5526806;26;20553;-78
2024/04/16 10:23:25;;;;;;;3.30;1.00;;;;;;;-145.69;38.61;52103.78;5527205;26;20225;-76
2024/04/16 10:25:52;;;;;;;6.50;1.30;;;;;;;-145.69;38.17;52080.00;5516505;26;20363;-77
2024/04/16 10:28:28;;;;;;;5.10;1.40;;;;;;;-145.69;37.41;52101.78;5490307;26;20235;-76
2024/04/16 10:30:59;;;;;;;3.33;1.17;;;;;;;-145.69;38.10;52099.81;5490838;26;20222;-76
2024/04/16 10:33:27;;;;;;;4.13;0.90;;;;;;;-145.69;38.77;52080.00;5526139;25;20337;-78
2024/04/16 10:35:55;;;;;;;3.90;0.90;;;;;;;-145.69;38.37;52032.47;5527086;26;20222;-80
2024/04/16 10:38:26;;;;;;;4.10;1.00;;;;;;;-145.69;38.36;52115.66;5527075;26;20281;-77
2024/04/16 10:40:54;;;;;;;3.92;1.10;;;;;;;-145.69;38.97;52083.97;5527098;26;20764;-78
2024/04/16 10:43:27;;;;;;;2.27;0.60;;;;;;;-145.69;38.96;52080.00;5508883;25;20234;-79
2024/04/16 10:45:53;;;;;;;4.20;0.90;;;;;;;-145.69;39.65;52052.28;5512026;26;20328;-77
2024/04/16 10:48:22;;;;;;;4.43;1.07;;;;;;;-145.69;38.98;52093.88;5526446;26;20226;-77
2024/04/16 10:50:52;;;;;;;5.00;1.10;;;;;;;-145.69;39.21;52074.06;5527086;26;20225;-77
2024/04/16 10:53:22;;;;;;;4.20;0.93;;;;;;;-145.69;39.18;52060.22;5526572;26;20584;-77
2024/04/16 10:55:47;;;;;;;2.93;0.90;;;;;;;-145.69;38.88;52097.84;5526080;26;20537;-75
2024/04/16 10:58:18;;;;;;;3.90;0.80;;;;;;;-145.69;39.89;52095.84;5526839;26;20309;-76
2024/04/16 11:00:51;;;;;;;3.60;0.90;;;;;;;-145.69;39.22;52072.09;5502714;26;20223;-77
2024/04/16 11:03:20;;;;;;;4.20;0.80;;;;;;;-145.69;39.63;52072.09;5525756;26;20267;-78
2024/04/16 11:05:54;;;;;;;4.43;0.93;;;;;;;-145.69;38.14;52082.00;5526165;26;20272;-78
2024/04/16 11:08:26;;;;;;;4.63;1.10;;;;;;;-145.69;38.46;52078.03;5526019;26;20275;-78
2024/04/16 11:10:54;;;;;;;6.83;1.20;;;;;;;-145.69;38.59;52058.22;5525785;26;20234;-77
2024/04/16 11:13:29;;;;;;;3.20;1.20;;;;;;;-145.69;37.42;52080.00;5526770;26;20263;-77
2024/04/16 11:16:00;;;;;;;3.43;1.20;;;;;;;-145.69;38.80;52083.97;5489104;26;20225;-77
2024/04/16 11:18:40;;;;;;;1.97;0.73;;;;;;;-145.69;38.85;52082.00;5522350;26;20225;-78
2024/04/16 11:21:06;;;;;;;4.50;1.00;;;;;;;-145.69;40.47;52056.25;5506894;26;20281;-77
2024/04/16 11:26:19;;;;;;;2.33;0.80;;;;;;;-145.69;38.59;52064.16;5485283;26;20257;-77